SPQU/AQP METAR and TAF weather

Enter ICAO airport designator
Station Type Date Time Source
SPQU METAR 2021/02/27 22:00 UTC NOAA

SPQU 272200Z 27014KT 9999 -RA SCT040 BKN100 17/07 Q1022 NOSIG RMK TX.21.8 PPTRZ


Station Type Date Time Source
SPQU Decoded METAR 2021/02/27 22:00 UTC NOAA

Arequipa, Peru (SPQU) 16-19S 071-33W 2539M
Feb 27, 2021 - 05:00 PM EST / 2021.02.27 2200 UTC
Wind: from the W (270 degrees) at 16 MPH (14 KT):0
Visibility: greater than 7 mile(s):0
Sky conditions: mostly cloudy
Weather: light rain
Temperature: 62 F (17 C)
Dew Point: 44 F (7 C)
Relative Humidity: 51%
Pressure (altimeter): 30.18 in. Hg (1022 hPa)
ob: SPQU 272200Z 27014KT 9999 -RA SCT040 BKN100 17/07 Q1022 NOSIG RMK TX.21.8 PPTRZ
cycle: 22

Station Type Date Time Source
SPQU TAF 2021/02/27 18:37 UTC NOAA

TAF SPQU 271729Z 2718/2818 25010KT 9999 FEW040 SCT080 TX23/2719Z TN11/2810Z
TEMPO 2721/2724 BKN020
FM280000 VRB05KT 9999 SCT060
FM280900 05003KT CAVOK

Example: see airport list